Tallassee, Alabama
Current Conditions -  °F | °C
As of 12:35 PM on Thursday 27 Nov 2014 (Local Time) from KALX Reporting Station
Broken Clouds Broken Clouds  
Wind Chill: 44°   Ceiling: 4400
Heat Index: 49°   Visibility: 10mi
Dew Point: 25°   Wind: 15mph
Humidity: 39%   Direction: 350°N
Pressure: 30.33"   Gusts: NA
Location:  32.54°N, 85.89°W
Report Text: KALX 271835Z AUTO 35013KT 10SM BKN044 10/M04 A3033 RMK AO2 T00961038
Loading
Personal Weather Stations






























Interactive Weather Map New forecast layout! Learn more

10-Day Weather Forecast

Advertisements
Track Severe Weather on mobile